createdAt,value
2022-11-18T00:02:05.915Z,7.95
2022-11-18T00:04:32.669Z,8.05
2022-11-18T00:06:59.536Z,8.02
2022-11-18T00:09:26.226Z,8.00
2022-11-18T00:12:11.602Z,7.88
2022-11-18T00:14:38.334Z,7.60
2022-11-18T00:17:06.782Z,7.53
2022-11-18T00:19:38.629Z,7.22
2022-11-18T00:22:07.447Z,8.00
2022-11-18T00:24:34.388Z,6.88
2022-11-18T00:27:01.107Z,7.55
2022-11-18T00:29:28.670Z,7.15
2022-11-18T00:31:56.709Z,7.38
2022-11-18T00:34:25.446Z,7.63
2022-11-18T00:36:52.031Z,7.63
2022-11-18T00:39:20.617Z,7.45
2022-11-18T00:42:06.558Z,8.55
2022-11-18T00:44:33.528Z,7.65
2022-11-18T00:47:00.260Z,7.85
2022-11-18T00:49:26.867Z,7.00
2022-11-18T00:51:53.503Z,6.90
2022-11-18T00:54:20.274Z,7.32
2022-11-18T00:56:46.967Z,8.13
2022-11-18T00:59:13.532Z,7.95
2022-11-18T01:01:40.174Z,7.60
2022-11-18T01:04:06.943Z,7.97
2022-11-18T01:06:33.500Z,8.23
2022-11-18T01:09:00.099Z,8.15
2022-11-18T01:11:45.310Z,8.55
2022-11-18T01:14:11.894Z,8.23
2022-11-18T01:16:38.534Z,8.48
2022-11-18T01:19:05.097Z,10.65
2022-11-18T01:21:31.861Z,8.20
2022-11-18T01:23:58.540Z,7.95
2022-11-18T01:26:25.191Z,8.15
2022-11-18T01:28:55.637Z,7.72
2022-11-18T01:31:22.243Z,6.70
2022-11-18T01:33:48.796Z,7.88
2022-11-18T01:36:15.304Z,7.32
2022-11-18T01:38:41.982Z,7.32
2022-11-18T01:41:08.685Z,7.43
2022-11-18T01:43:51.970Z,7.78
2022-11-18T01:46:19.503Z,8.68
2022-11-18T01:48:50.357Z,8.95
2022-11-18T01:51:21.148Z,8.05
2022-11-18T01:54:00.260Z,7.75
2022-11-18T01:56:36.431Z,8.45
2022-11-18T01:59:08.041Z,8.43
2022-11-18T02:01:34.768Z,7.57
2022-11-18T02:04:01.377Z,7.90
2022-11-18T02:06:27.994Z,7.38
2022-11-18T02:08:55.993Z,8.50
2022-11-18T02:11:41.387Z,8.50
2022-11-18T02:14:10.112Z,8.20
2022-11-18T02:16:45.850Z,7.60
2022-11-18T02:19:37.285Z,8.18
2022-11-18T02:22:25.785Z,8.52
2022-11-18T02:25:21.788Z,7.28
2022-11-18T02:28:10.182Z,7.90
2022-11-18T02:30:48.896Z,8.38
2022-11-18T02:33:26.487Z,7.30
2022-11-18T02:36:01.038Z,7.28
2022-11-18T02:38:36.830Z,7.93
2022-11-18T02:41:10.627Z,7.43
2022-11-18T02:43:43.838Z,6.40
2022-11-18T02:46:16.290Z,6.45
2022-11-18T02:48:48.586Z,7.10
2022-11-18T02:51:19.770Z,7.40
2022-11-18T02:53:49.275Z,6.90
2022-11-18T02:56:17.695Z,6.72
2022-11-18T02:58:44.369Z,6.82
2022-11-18T03:01:25.373Z,7.15
2022-11-18T03:03:51.940Z,6.22
2022-11-18T03:06:33.768Z,6.47
2022-11-18T03:09:15.740Z,6.50
2022-11-18T03:12:14.782Z,6.90
2022-11-18T03:15:00.417Z,6.57
2022-11-18T03:17:48.599Z,6.97
2022-11-18T03:20:25.116Z,6.25
2022-11-18T03:23:03.642Z,5.88
2022-11-18T03:25:30.240Z,6.38
2022-11-18T03:28:06.964Z,5.65
2022-11-18T03:30:38.574Z,5.88
2022-11-18T03:33:11.813Z,5.38
2022-11-18T03:35:43.131Z,5.38
2022-11-18T03:38:16.873Z,5.43
2022-11-18T03:40:50.548Z,5.53
2022-11-18T03:43:21.710Z,4.78
2022-11-18T03:46:13.457Z,5.78
2022-11-18T03:49:00.885Z,5.63
2022-11-18T03:51:36.798Z,5.47
2022-11-18T03:54:11.753Z,5.47
2022-11-18T03:56:43.697Z,6.30
2022-11-18T03:59:19.497Z,5.90
2022-11-18T04:01:54.933Z,5.95
2022-11-18T04:04:23.076Z,6.50
2022-11-18T04:06:55.245Z,6.03
2022-11-18T04:09:27.353Z,6.63
2022-11-18T04:12:04.437Z,7.40
2022-11-18T04:14:37.590Z,8.32
2022-11-18T04:17:12.112Z,7.80
2022-11-18T04:19:39.061Z,8.75
2022-11-18T04:22:06.630Z,8.95
2022-11-18T04:24:33.597Z,8.60
2022-11-18T04:27:02.766Z,8.13
2022-11-18T04:29:33.450Z,8.60
2022-11-18T04:32:01.577Z,9.27
2022-11-18T04:34:29.037Z,9.50
2022-11-18T04:36:56.532Z,8.95
2022-11-18T04:39:23.179Z,9.05
2022-11-18T04:41:55.677Z,9.52
2022-11-18T04:44:26.714Z,9.82
2022-11-18T04:46:54.735Z,10.77
2022-11-18T04:49:21.820Z,10.52
2022-11-18T04:51:48.728Z,9.68
2022-11-18T04:54:16.012Z,9.73
2022-11-18T04:56:48.709Z,10.48
2022-11-18T04:59:18.475Z,9.98
2022-11-18T05:01:45.396Z,9.05
2022-11-18T05:04:17.713Z,9.82
2022-11-18T05:06:44.548Z,11.15
2022-11-18T05:09:11.659Z,9.50
2022-11-18T05:11:56.832Z,10.57
2022-11-18T05:14:27.920Z,11.20
2022-11-18T05:16:56.215Z,13.00
2022-11-18T05:19:23.619Z,12.57
2022-11-18T05:21:50.281Z,11.48
2022-11-18T05:24:17.180Z,11.70
2022-11-18T05:26:44.127Z,12.73
2022-11-18T05:29:11.173Z,13.30
2022-11-18T05:31:37.886Z,13.15
2022-11-18T05:34:04.677Z,12.63
2022-11-18T05:36:31.216Z,14.00
2022-11-18T05:39:02.132Z,12.95
2022-11-18T05:41:47.807Z,14.00
2022-11-18T05:44:14.612Z,14.15
2022-11-18T05:46:41.499Z,13.68
2022-11-18T05:49:08.421Z,14.38
2022-11-18T05:51:35.701Z,13.43
2022-11-18T05:54:08.299Z,14.20
2022-11-18T05:56:38.068Z,15.55
2022-11-18T05:59:04.774Z,16.92
2022-11-18T06:01:38.111Z,18.60
2022-11-18T06:04:11.898Z,18.70
2022-11-18T06:06:39.042Z,17.02
2022-11-18T06:09:08.574Z,17.10
2022-11-18T06:11:43.643Z,18.63
2022-11-18T06:14:17.466Z,18.00
2022-11-18T06:16:50.147Z,16.65
2022-11-18T06:19:17.303Z,17.17
2022-11-18T06:21:45.313Z,16.55
2022-11-18T06:24:13.595Z,17.40
2022-11-18T06:26:41.376Z,16.23
2022-11-18T06:29:11.370Z,18.17
2022-11-18T06:31:37.910Z,17.42
2022-11-18T06:34:04.520Z,17.55
2022-11-18T06:36:31.139Z,17.30
2022-11-18T06:39:03.272Z,18.85
2022-11-18T06:41:30.106Z,17.23
2022-11-18T06:43:56.834Z,20.17
2022-11-18T06:46:41.947Z,19.42
2022-11-18T06:49:08.956Z,21.42
2022-11-18T06:51:35.651Z,19.92
2022-11-18T06:54:07.423Z,20.40
2022-11-18T06:56:37.558Z,21.05
2022-11-18T06:59:04.826Z,20.40
2022-11-18T07:01:38.379Z,22.73
2022-11-18T07:04:05.608Z,22.63
2022-11-18T07:06:34.321Z,22.58
2022-11-18T07:09:02.513Z,23.33
2022-11-18T07:11:29.508Z,23.73
2022-11-18T07:13:56.554Z,24.20
2022-11-18T07:16:25.446Z,23.10
2022-11-18T07:18:53.381Z,22.73
2022-11-18T07:21:22.163Z,24.50
2022-11-18T07:23:49.287Z,24.70
2022-11-18T07:26:16.573Z,25.88
2022-11-18T07:28:43.333Z,23.75
2022-11-18T07:31:15.284Z,26.02
2022-11-18T07:33:43.379Z,27.80
2022-11-18T07:36:12.962Z,26.48
2022-11-18T07:38:40.512Z,26.88
2022-11-18T07:41:10.148Z,26.48
2022-11-18T07:43:38.012Z,24.38
2022-11-18T07:46:23.015Z,25.33
2022-11-18T07:48:51.772Z,22.55
2022-11-18T07:51:20.006Z,23.37
2022-11-18T07:53:47.388Z,23.17
2022-11-18T07:56:14.859Z,23.67
2022-11-18T07:58:42.358Z,23.65
2022-11-18T08:01:18.195Z,22.52
2022-11-18T08:03:46.117Z,24.10
2022-11-18T08:06:16.182Z,24.15
2022-11-18T08:08:43.567Z,24.48
2022-11-18T08:11:15.166Z,22.65
2022-11-18T08:13:45.486Z,24.80
2022-11-18T08:16:21.284Z,23.33
2022-11-18T08:18:48.337Z,21.75
2022-11-18T08:21:15.962Z,25.55
2022-11-18T08:23:42.976Z,25.05
2022-11-18T08:26:14.741Z,23.67
2022-11-18T08:28:42.550Z,24.40
2022-11-18T08:31:18.997Z,23.48
2022-11-18T08:33:46.456Z,23.13
2022-11-18T08:36:17.566Z,23.50
2022-11-18T08:38:47.403Z,26.90
2022-11-18T08:41:20.472Z,32.05
2022-11-18T08:43:47.206Z,29.83
2022-11-18T08:46:14.480Z,25.60
2022-11-18T08:48:41.481Z,27.27
2022-11-18T08:51:12.409Z,26.33
2022-11-18T08:53:39.006Z,24.73
2022-11-18T08:56:05.978Z,25.55
2022-11-18T08:58:32.903Z,21.92
2022-11-18T09:01:05.342Z,21.10
2022-11-18T09:03:32.241Z,20.08
2022-11-18T09:06:16.906Z,21.40
2022-11-18T09:08:46.274Z,20.42
2022-11-18T09:11:18.311Z,20.75
2022-11-18T09:14:53.545Z,21.13
2022-11-18T09:16:34.648Z,19.80
2022-11-18T09:19:18.230Z,20.13
2022-11-18T09:21:48.472Z,20.25
2022-11-18T09:24:16.067Z,19.73
2022-11-18T09:26:43.106Z,21.42
2022-11-18T09:29:12.783Z,20.08
2022-11-18T09:31:39.756Z,20.48
2022-11-18T09:34:10.434Z,19.25
2022-11-18T09:36:37.557Z,19.67
2022-11-18T09:39:04.664Z,20.02
2022-11-18T09:41:44.858Z,23.90
2022-11-18T09:44:42.670Z,19.58
2022-11-18T09:47:32.034Z,19.70
2022-11-18T09:50:20.297Z,19.58
2022-11-18T09:53:20.994Z,20.02
2022-11-18T09:55:49.554Z,19.00
2022-11-18T09:58:29.446Z,20.42
2022-11-18T10:00:56.076Z,18.83
2022-11-18T10:03:31.616Z,18.38
2022-11-18T10:06:04.026Z,19.05
2022-11-18T10:08:55.710Z,20.25
2022-11-18T10:11:28.609Z,18.65
2022-11-18T10:14:30.345Z,18.90
2022-11-18T10:17:07.103Z,17.85
2022-11-18T10:19:38.518Z,18.00
2022-11-18T10:22:53.760Z,16.95
2022-11-18T10:25:20.595Z,15.27
2022-11-18T10:27:49.539Z,15.10
2022-11-18T10:30:22.318Z,17.35
2022-11-18T10:33:04.418Z,15.95
2022-11-18T10:35:37.618Z,17.08
2022-11-18T10:38:17.485Z,15.75
2022-11-18T10:40:56.261Z,17.33
2022-11-18T10:43:43.584Z,18.30
2022-11-18T10:46:33.595Z,17.77
2022-11-18T10:49:06.759Z,16.58
2022-11-18T10:51:33.377Z,20.92
2022-11-18T10:54:21.333Z,19.83
2022-11-18T10:56:57.853Z,17.30
2022-11-18T10:59:31.419Z,17.38
2022-11-18T11:02:33.443Z,18.20
2022-11-18T11:05:05.046Z,16.65
2022-11-18T11:07:32.966Z,17.25
2022-11-18T11:10:06.625Z,16.83
2022-11-18T11:12:35.592Z,16.42
2022-11-18T11:15:06.431Z,16.00
2022-11-18T11:17:40.907Z,16.67
2022-11-18T11:20:18.153Z,17.27
2022-11-18T11:22:46.032Z,16.92
2022-11-18T11:25:18.810Z,17.17
2022-11-18T11:28:16.919Z,17.00
2022-11-18T11:31:21.872Z,17.23
2022-11-18T11:34:33.801Z,15.82
2022-11-18T11:37:14.791Z,15.18
2022-11-18T11:43:41.673Z,13.93
2022-11-18T11:46:36.216Z,13.57
2022-11-18T11:49:19.203Z,14.10
2022-11-18T11:51:54.747Z,14.63
2022-11-18T11:54:31.298Z,14.45
2022-11-18T11:57:04.607Z,15.55
2022-11-18T11:59:43.274Z,13.13
2022-11-18T12:02:31.669Z,12.57
2022-11-18T12:05:08.844Z,13.63
2022-11-18T12:07:47.699Z,13.77
2022-11-18T12:10:29.964Z,14.52
2022-11-18T12:13:02.595Z,14.15
2022-11-18T12:16:00.166Z,14.20
2022-11-18T12:18:37.551Z,15.23
2022-11-18T12:21:04.235Z,15.27
2022-11-18T12:23:32.988Z,14.07
2022-11-18T12:26:00.913Z,14.40
2022-11-18T12:28:30.838Z,14.65
2022-11-18T12:31:34.363Z,15.35
2022-11-18T12:34:04.805Z,15.88
2022-11-18T12:36:40.182Z,16.00
2022-11-18T12:39:25.253Z,17.08
2022-11-18T12:42:23.775Z,21.05
2022-11-18T12:44:52.570Z,16.65
2022-11-18T12:47:51.467Z,16.40
2022-11-18T12:50:18.074Z,15.85
2022-11-18T12:52:49.047Z,15.95
2022-11-18T12:55:25.975Z,16.85
2022-11-18T12:57:53.011Z,18.05
2022-11-18T13:00:22.471Z,16.75
2022-11-18T13:02:57.289Z,17.13
2022-11-18T13:05:26.912Z,16.40
2022-11-18T13:11:13.285Z,15.15
2022-11-18T13:13:41.382Z,15.90
2022-11-18T13:16:39.693Z,15.77
2022-11-18T13:19:06.523Z,16.05
2022-11-18T13:21:52.213Z,18.33
2022-11-18T13:24:21.902Z,17.90
2022-11-18T13:29:54.190Z,16.52
2022-11-18T13:32:29.022Z,15.98
2022-11-18T13:34:58.378Z,17.77
2022-11-18T13:37:28.800Z,18.75
2022-11-18T13:39:56.106Z,16.65
2022-11-18T13:42:25.376Z,17.30
2022-11-18T13:44:57.564Z,16.80
2022-11-18T13:47:30.658Z,16.15
2022-11-18T13:50:25.371Z,16.58
2022-11-18T13:53:07.205Z,16.05
2022-11-18T13:55:50.337Z,16.65
2022-11-18T13:58:19.976Z,17.70
2022-11-18T14:03:34.395Z,16.58
2022-11-18T14:06:02.325Z,18.42
2022-11-18T14:08:32.736Z,18.38
2022-11-18T14:11:00.459Z,18.42
2022-11-18T14:13:28.376Z,18.05
2022-11-18T14:15:57.581Z,18.52
2022-11-18T14:18:37.362Z,19.90
2022-11-18T14:21:05.879Z,19.10
2022-11-18T14:23:34.898Z,17.73
2022-11-18T14:26:04.320Z,17.85
2022-11-18T14:28:34.073Z,20.08
2022-11-18T14:31:09.900Z,15.65
2022-11-18T14:33:38.061Z,16.35
2022-11-18T14:36:14.216Z,19.80
2022-11-18T14:41:48.612Z,15.27
2022-11-18T14:44:16.125Z,19.23
2022-11-18T14:46:46.236Z,16.08
2022-11-18T14:49:17.004Z,14.60
2022-11-18T14:51:45.259Z,14.00
2022-11-18T14:54:13.970Z,13.70
2022-11-18T14:56:42.008Z,13.63
2022-11-18T14:59:16.351Z,14.07
2022-11-18T15:01:44.858Z,13.88
2022-11-18T15:04:12.323Z,13.63
2022-11-18T15:06:39.807Z,13.07
2022-11-18T15:09:10.596Z,14.60
2022-11-18T15:11:37.161Z,16.58
2022-11-18T15:14:04.151Z,14.52
2022-11-18T15:16:32.662Z,16.05
2022-11-18T15:19:03.352Z,13.52
2022-11-18T15:21:30.777Z,13.38
2022-11-18T15:23:57.702Z,13.57
2022-11-18T15:26:49.258Z,13.45
2022-11-18T15:29:22.354Z,14.55
2022-11-18T15:31:49.562Z,13.55
2022-11-18T15:34:18.178Z,14.05
2022-11-18T15:36:45.318Z,16.33
2022-11-18T15:39:12.243Z,17.10
2022-11-18T15:41:40.763Z,12.75
2022-11-18T15:44:09.832Z,15.00
2022-11-18T15:46:36.517Z,15.35
2022-11-18T15:49:03.439Z,13.57
2022-11-18T15:51:30.867Z,12.38
2022-11-18T15:53:58.384Z,12.20
2022-11-18T15:56:28.516Z,12.48
2022-11-18T15:58:59.083Z,11.85
2022-11-18T16:01:28.274Z,13.77
2022-11-18T16:03:55.429Z,12.80
2022-11-18T16:06:22.796Z,12.20
2022-11-18T16:08:52.197Z,11.93
2022-11-18T16:11:41.195Z,10.63
2022-11-18T16:14:10.502Z,11.43
2022-11-18T16:16:40.474Z,10.60
2022-11-18T16:19:09.074Z,10.77
2022-11-18T16:21:38.786Z,10.98
2022-11-18T16:24:08.032Z,10.25
2022-11-18T16:26:36.973Z,10.18
2022-11-18T16:29:05.453Z,9.27
2022-11-18T16:31:41.581Z,9.90
2022-11-18T16:34:13.603Z,8.45
2022-11-18T16:36:42.526Z,10.02
2022-11-18T16:39:12.592Z,9.38
2022-11-18T16:41:40.883Z,9.15
2022-11-18T16:44:09.572Z,8.68
2022-11-18T16:46:38.378Z,9.40
2022-11-18T16:49:05.852Z,9.90
2022-11-18T16:51:34.985Z,10.27
2022-11-18T16:54:06.943Z,9.43
2022-11-18T16:56:35.702Z,10.15
2022-11-18T16:59:11.439Z,9.13
2022-11-18T17:01:38.337Z,8.77
2022-11-18T17:04:06.062Z,8.77
2022-11-18T17:06:32.936Z,9.02
2022-11-18T17:09:00.176Z,8.05
2022-11-18T17:11:27.898Z,8.52
2022-11-18T17:13:57.918Z,7.53
2022-11-18T17:16:26.577Z,8.43
2022-11-18T17:18:58.844Z,8.07
2022-11-18T17:21:27.345Z,7.50
2022-11-18T17:23:54.783Z,8.80
2022-11-18T17:26:24.365Z,8.65
2022-11-18T17:31:22.864Z,9.32
2022-11-18T17:33:52.586Z,10.07
2022-11-18T17:38:49.043Z,9.18
2022-11-18T17:41:37.001Z,8.23
2022-11-18T17:44:05.999Z,7.78
2022-11-18T17:46:37.952Z,9.20
2022-11-18T17:49:08.045Z,8.73
2022-11-18T17:51:34.854Z,8.85
2022-11-18T17:54:01.648Z,9.32
2022-11-18T17:56:28.406Z,9.02
2022-11-18T17:59:35.325Z,9.38
2022-11-18T18:02:26.471Z,8.57
2022-11-18T18:04:49.834Z,8.85
2022-11-18T18:07:16.510Z,9.20
2022-11-18T18:09:43.534Z,8.20
2022-11-18T18:12:28.911Z,9.13
2022-11-18T18:14:55.935Z,8.70
2022-11-18T18:17:22.715Z,10.18
2022-11-18T18:19:49.405Z,8.73
2022-11-18T18:22:17.444Z,8.63
2022-11-18T18:24:44.143Z,9.32
2022-11-18T18:27:10.980Z,8.95
2022-11-18T18:29:37.641Z,9.75
2022-11-18T18:32:04.676Z,9.52
2022-11-18T18:34:31.278Z,10.20
2022-11-18T18:36:57.912Z,9.30
2022-11-18T18:39:24.574Z,10.63
2022-11-18T18:41:51.287Z,10.57
2022-11-18T18:44:18.969Z,10.68
2022-11-18T18:46:45.672Z,11.23
2022-11-18T18:49:14.409Z,11.57
2022-11-18T18:51:45.159Z,12.23
2022-11-18T18:54:14.052Z,14.48
2022-11-18T18:56:43.509Z,12.93
2022-11-18T18:59:49.436Z,12.38
2022-11-18T19:02:16.307Z,12.18
2022-11-18T19:04:45.669Z,12.73
2022-11-18T19:07:12.423Z,13.25
2022-11-18T19:09:39.188Z,13.35
2022-11-18T19:12:25.395Z,13.00
2022-11-18T19:14:52.099Z,14.40
2022-11-18T19:17:18.945Z,13.00
2022-11-18T19:20:04.281Z,14.18
2022-11-18T19:22:32.729Z,13.85
2022-11-18T19:25:01.403Z,13.43
2022-11-18T19:27:29.700Z,15.98
2022-11-18T19:29:56.426Z,16.30
2022-11-18T19:32:23.482Z,15.13
2022-11-18T19:34:50.449Z,16.33
2022-11-18T19:37:22.758Z,17.35
2022-11-18T19:39:53.603Z,16.35
2022-11-18T19:42:20.274Z,15.75
2022-11-18T19:44:46.942Z,17.73
2022-11-18T19:47:13.628Z,18.48
2022-11-18T19:49:40.226Z,17.98
2022-11-18T19:52:07.434Z,18.85
2022-11-18T19:54:34.072Z,19.40
2022-11-18T19:57:27.403Z,18.58
2022-11-18T19:59:55.541Z,20.70
2022-11-18T20:02:22.419Z,22.80
2022-11-18T20:05:07.738Z,21.88
2022-11-18T20:07:34.651Z,22.27
2022-11-18T20:10:01.611Z,21.30
2022-11-18T20:12:28.553Z,21.58
2022-11-18T20:14:55.536Z,22.10
2022-11-18T20:17:24.207Z,22.98
2022-11-18T20:19:53.463Z,22.73
2022-11-18T20:22:20.195Z,22.05
2022-11-18T20:24:47.893Z,24.13
2022-11-18T20:27:17.154Z,22.90
2022-11-18T20:29:44.651Z,23.17
2022-11-18T20:32:11.280Z,23.75
2022-11-18T20:34:39.855Z,24.02
2022-11-18T20:37:06.499Z,25.40
2022-11-18T20:39:33.116Z,22.35
2022-11-18T20:42:18.508Z,22.65
2022-11-18T20:44:45.287Z,24.20
2022-11-18T20:47:11.955Z,21.60
2022-11-18T20:49:38.748Z,25.33
2022-11-18T20:52:05.601Z,26.38
2022-11-18T20:54:33.671Z,27.63
2022-11-18T20:57:00.420Z,26.23
2022-11-18T20:59:27.200Z,27.35
2022-11-18T21:01:53.915Z,25.50
2022-11-18T21:04:20.589Z,26.13
2022-11-18T21:06:47.798Z,26.88
2022-11-18T21:09:16.871Z,27.15
2022-11-18T21:11:43.848Z,26.35
2022-11-18T21:14:24.773Z,25.45
2022-11-18T21:17:07.705Z,26.95
2022-11-18T21:19:37.466Z,27.73
2022-11-18T21:22:04.552Z,26.30
2022-11-18T21:24:33.080Z,28.13
2022-11-18T21:27:00.985Z,28.08
2022-11-18T21:29:30.244Z,28.60
2022-11-18T21:31:58.230Z,26.42
2022-11-18T21:34:24.890Z,28.33
2022-11-18T21:36:54.861Z,31.77
2022-11-18T21:39:25.491Z,31.08
2022-11-18T21:41:56.586Z,27.83
2022-11-18T21:44:23.912Z,26.45
2022-11-18T21:46:50.606Z,29.05
2022-11-18T21:49:17.599Z,28.33
2022-11-18T21:51:44.617Z,29.25
2022-11-18T21:54:12.566Z,28.92
2022-11-18T21:56:39.179Z,28.55
2022-11-18T21:59:07.452Z,27.27
2022-11-18T22:01:34.036Z,26.35
2022-11-18T22:04:02.770Z,28.67
2022-11-18T22:06:31.497Z,27.27
2022-11-18T22:08:59.073Z,28.77
2022-11-18T22:11:25.982Z,26.58
2022-11-18T22:13:53.717Z,28.17
2022-11-18T22:16:22.884Z,26.40
2022-11-18T22:18:56.464Z,26.55
2022-11-18T22:21:28.684Z,27.42
2022-11-18T22:24:00.550Z,27.02
2022-11-18T22:26:28.165Z,27.38
2022-11-18T22:28:56.693Z,27.55
2022-11-18T22:31:24.839Z,27.40
2022-11-18T22:33:52.249Z,27.90
2022-11-18T22:36:21.366Z,27.08
2022-11-18T22:38:48.561Z,27.35
2022-11-18T22:41:54.148Z,26.52
2022-11-18T22:44:20.840Z,26.88
2022-11-18T22:46:47.574Z,28.85
2022-11-18T22:49:14.380Z,26.67
2022-11-18T22:51:41.176Z,28.83
2022-11-18T22:56:56.209Z,28.58
2022-11-18T22:59:23.669Z,25.75
2022-11-18T23:01:51.565Z,28.75
2022-11-18T23:04:18.221Z,28.33
2022-11-18T23:06:45.042Z,28.63
2022-11-18T23:09:11.865Z,27.85
2022-11-18T23:11:57.124Z,28.15
2022-11-18T23:14:23.752Z,26.10
2022-11-18T23:16:50.443Z,28.55
2022-11-18T23:19:18.076Z,27.92
2022-11-18T23:21:45.524Z,27.23
2022-11-18T23:24:14.416Z,29.40
2022-11-18T23:26:41.809Z,24.67
2022-11-18T23:29:08.490Z,28.20
2022-11-18T23:31:35.277Z,28.27
2022-11-18T23:34:01.894Z,25.75
2022-11-18T23:36:28.569Z,28.58
2022-11-18T23:38:55.241Z,29.88
2022-11-18T23:41:22.094Z,27.33
2022-11-18T23:43:49.281Z,25.45
2022-11-18T23:46:17.906Z,28.25
2022-11-18T23:48:45.400Z,28.27
2022-11-18T23:51:13.440Z,28.27
2022-11-18T23:53:40.797Z,29.33
2022-11-18T23:56:13.316Z,26.85
2022-11-18T23:58:41.357Z,28.13
